Crossville Memorial Whitson Field
KCSV : rendu visible

Aérodrome :











RETROUVEZ-NOUS SUR...

 
LOGIN :

S'inscrire | Disclaimer

   EN    FR    IT 

 









Légende :    VFR   VFR Marginal   IFR   IFR Intensif   IFR Très Intensif
Visi : 
Plafond : 
>= 8 km
>= 3000ft
5 à 8 km
1000 à 3000 ft
1500m à 5 km
500 à 1000 ft
800 à 1500m
200 à 500 ft
< 800m
< 200 ft
Symboles :   Orages  Brouillard  Fortes neiges  Fortes précipitations  Vent > 20 kt






- Altitude de l'aérodrome : 1881 ft


KCSV - Crossville Memorial Whitson Field

DERNIER METAR :
  • 042353Z AUTO 28006KT 10SM CLR 18/04 A2999 RMK AO2 SLP145 T01830039 10222 20178 53007

METARs EXPIRÉS :
  • 042253Z AUTO 00000KT 10SM CLR 21/02 A2998 RMK AO2 SLP139 T02060022
  • 042153Z AUTO 32004KT 10SM CLR 21/02 A2997 RMK AO2 SLP136 T02110017

TAF KCSV
Valide du 05 à 00h jusqu'au 06 à 00h UTC


042320Z 0500/0524 34005KT P6SM FEW070 BKN250
FM050900 34002KT 4SM BR SCT060
FM051300 36005KT P6SM SCT050



MET'MAP, la Météo Aéronautique d'un coup d'oeil ! - Copyright ORBIFLY Décembre 2007 - Disclaimer

ORBIFLY MET'MAP TEAM :

Programmation & Développement : Alexandra Zaïnal
Sur une idée originale de : Baudouin d'Aumeries
Assistance à la programmation : Marc-Olivier Méhu
Soutien technique & logistique : Manuel Goepfert

Contact : metmap@orbifly.com




SOURCES & CREDITS :

   NOAA       Earth
Advisory